Time;durP1;ratioP1;P1;durP2;ratioP2;P2;SDS_P1;SDS_P2;PMS_P1;PMS_P2;Temp;Humidity;BMP_temperature;BMP_pressure;BME280_temperature;BME280_humidity;BME280_pressure;Samples;Min_cycle;Max_cycle;Signal;HPM_P1;HPM_P2
2022/12/27 00:00:23;;;;;;;102.75;42.72;;;;;;;12.55;100.00;95139.97;4985468;28;20049;-83
2022/12/27 00:02:49;;;;;;;92.00;36.92;;;;;;;13.10;100.00;95140.28;5001255;28;20026;-83
2022/12/27 00:05:16;;;;;;;89.05;34.50;;;;;;;13.15;100.00;95135.00;5000715;28;20073;-83
2022/12/27 00:07:42;;;;;;;80.00;33.38;;;;;;;13.11;100.00;95141.84;5001296;28;20347;-83
2022/12/27 00:10:09;;;;;;;88.05;35.28;;;;;;;12.66;100.00;95144.19;4985026;28;20037;-83
2022/12/27 00:12:34;;;;;;;86.38;33.85;;;;;;;12.83;100.00;95130.81;4984955;28;20460;-83
2022/12/27 00:15:00;;;;;;;78.60;33.50;;;;;;;13.32;100.00;95133.16;4984860;28;20029;-83
2022/12/27 00:17:26;;;;;;;68.03;28.45;;;;;;;13.32;100.00;95133.94;5018319;28;20030;-83
2022/12/27 00:19:52;;;;;;;100.88;40.33;;;;;;;12.24;100.00;95126.75;5000484;28;20409;-83
2022/12/27 00:22:18;;;;;;;68.15;28.90;;;;;;;12.73;100.00;95120.28;4984878;28;20080;-83
2022/12/27 00:24:43;;;;;;;60.17;23.55;;;;;;;12.80;100.00;95126.09;4984678;28;20036;-83
2022/12/27 00:27:08;;;;;;;53.08;20.02;;;;;;;12.87;100.00;95117.94;5000874;28;20434;-83
2022/12/27 00:29:34;;;;;;;40.85;18.08;;;;;;;13.21;100.00;95121.88;4983484;28;20041;-83
2022/12/27 00:31:59;;;;;;;32.80;15.10;;;;;;;13.48;100.00;95129.47;4984594;28;20029;-83
2022/12/27 00:34:25;;;;;;;42.58;17.25;;;;;;;13.49;100.00;95114.47;4968448;28;20502;-83
2022/12/27 00:36:50;;;;;;;53.53;21.70;;;;;;;13.41;100.00;95116.56;5000830;28;20078;-83
2022/12/27 00:39:16;;;;;;;48.65;20.02;;;;;;;13.43;100.00;95122.38;5000474;28;20026;-83
2022/12/27 00:41:42;;;;;;;44.08;18.67;;;;;;;13.08;100.00;95133.69;5017861;28;20021;-83
2022/12/27 00:44:07;;;;;;;27.63;12.68;;;;;;;13.01;100.00;95116.34;5000596;28;20026;-83
2022/12/27 00:46:33;;;;;;;32.05;12.98;;;;;;;12.57;100.00;95112.38;5000125;28;20040;-83
2022/12/27 00:48:58;;;;;;;58.08;22.38;;;;;;;12.30;100.00;95121.25;4984222;28;20347;-83
2022/12/27 00:51:25;;;;;;;71.53;28.73;;;;;;;12.75;100.00;95112.91;5017656;28;20076;-83
2022/12/27 00:53:51;;;;;;;70.47;28.60;;;;;;;13.04;100.00;95112.38;5017798;28;20034;-83
2022/12/27 00:56:20;;;;;;;62.25;26.92;;;;;;;13.49;100.00;95109.22;5000383;28;20157;-83
2022/12/27 00:58:45;;;;;;;63.80;25.90;;;;;;;13.39;100.00;95112.59;4984085;28;20034;-83
2022/12/27 01:01:13;;;;;;;50.05;21.80;;;;;;;13.68;100.00;95112.03;4984149;28;20030;-83
2022/12/27 01:03:39;;;;;;;55.80;23.40;;;;;;;13.77;100.00;95101.75;4999978;28;20030;-83
2022/12/27 01:06:06;;;;;;;54.75;25.02;;;;;;;13.69;100.00;95106.53;5000039;28;20390;-83
2022/12/27 01:08:31;;;;;;;47.28;20.10;;;;;;;12.91;100.00;95103.19;4999830;28;20029;-83
2022/12/27 01:10:57;;;;;;;48.22;21.63;;;;;;;13.03;100.00;95104.78;4999902;28;20029;-83
2022/12/27 01:13:23;;;;;;;52.58;23.02;;;;;;;13.22;100.00;95099.75;5000211;28;20450;-83
2022/12/27 01:15:48;;;;;;;48.08;21.70;;;;;;;13.49;100.00;95106.59;4999941;28;20029;-83
2022/12/27 01:18:14;;;;;;;51.95;23.00;;;;;;;13.69;100.00;95101.25;4983823;28;20124;-83
2022/12/27 01:20:39;;;;;;;55.25;22.67;;;;;;;13.31;100.00;95098.16;4983452;28;20474;-83
2022/12/27 01:23:05;;;;;;;54.72;23.48;;;;;;;13.64;100.00;95100.47;4983320;28;20026;-83
2022/12/27 01:25:30;;;;;;;47.08;21.55;;;;;;;13.80;100.00;95104.63;4999737;28;20029;-83
2022/12/27 01:27:55;;;;;;;42.28;20.35;;;;;;;13.51;100.00;95097.34;4999501;28;20113;-83
2022/12/27 01:30:21;;;;;;;40.03;19.48;;;;;;;13.64;100.00;95101.28;4999489;28;20034;-83
2022/12/27 01:32:46;;;;;;;51.75;21.95;;;;;;;13.66;100.00;95095.72;4999786;28;20030;-83
2022/12/27 01:35:12;;;;;;;46.80;21.23;;;;;;;13.58;100.00;95089.16;4999526;28;20121;-83
2022/12/27 01:37:38;;;;;;;43.47;18.02;;;;;;;13.36;100.00;95087.63;4999474;28;20443;-83
2022/12/27 01:40:04;;;;;;;33.75;15.77;;;;;;;13.05;100.00;95082.41;5017035;28;20069;-83
2022/12/27 01:45:17;;;;;;;34.08;17.52;;;;;;;13.61;100.00;95077.31;5002376;28;20342;-83
2022/12/27 01:48:03;;;;;;;35.72;17.33;;;;;;;13.53;100.00;95087.34;5016849;28;20026;-83
2022/12/27 01:50:44;;;;;;;34.00;14.88;;;;;;;13.64;100.00;95082.84;4983060;28;20033;-83
2022/12/27 01:53:16;;;;;;;34.50;14.05;;;;;;;13.34;100.00;95089.75;4983440;28;20034;-83
2022/12/27 01:56:08;;;;;;;37.80;16.27;;;;;;;12.87;100.00;95094.25;5016887;28;20395;-83
2022/12/27 01:58:45;;;;;;;33.53;15.10;;;;;;;13.06;100.00;95099.78;5012246;28;20061;-83
2022/12/27 02:01:14;;;;;;;40.08;18.13;;;;;;;13.25;100.00;95089.47;4999263;28;20403;-83
2022/12/27 02:03:47;;;;;;;42.28;17.42;;;;;;;12.61;100.00;95096.06;4999288;28;20061;-83
2022/12/27 02:06:13;;;;;;;39.97;17.88;;;;;;;13.27;100.00;95091.84;4999178;28;20039;-83
2022/12/27 02:08:53;;;;;;;43.40;18.95;;;;;;;13.81;100.00;95094.91;4999090;28;20354;-83
2022/12/27 02:11:49;;;;;;;41.08;17.15;;;;;;;13.86;100.00;95092.22;4999600;28;20036;-83
2022/12/27 02:14:08;;;;;;;35.42;16.10;;;;;;;13.99;100.00;95082.97;5001875;28;20091;-83
2022/12/27 02:16:34;;;;;;;31.33;13.88;;;;;;;13.82;100.00;95089.34;4999073;28;20505;-83
2022/12/27 02:18:59;;;;;;;28.70;12.70;;;;;;;13.91;100.00;95089.56;4999143;28;20038;-83
2022/12/27 02:22:09;;;;;;;25.23;12.07;;;;;;;13.96;100.00;95086.94;4999028;28;20030;-83
2022/12/27 02:25:09;;;;;;;17.95;8.27;;;;;;;14.24;100.00;95084.69;5016690;28;20037;-83
2022/12/27 02:27:45;;;;;;;23.23;9.30;;;;;;;14.14;100.00;95087.38;5016449;28;20034;-83
2022/12/27 02:30:12;;;;;;;18.40;8.02;;;;;;;13.64;100.00;95082.84;4998944;28;20030;-83
2022/12/27 02:33:02;;;;;;;23.20;11.25;;;;;;;13.79;100.00;95086.47;4999160;28;20116;-83
2022/12/27 02:35:41;;;;;;;21.48;10.35;;;;;;;13.51;100.00;95088.69;5002924;28;20037;-83
2022/12/27 02:38:35;;;;;;;22.67;10.00;;;;;;;13.35;100.00;95080.78;4986569;28;20031;-83
2022/12/27 02:57:07;;;;;;;32.25;15.60;;;;;;;13.61;100.00;95091.25;5019873;28;20497;-83
2022/12/27 02:58:51;;;;;;;18.20;8.18;;;;;;;12.66;100.00;95098.72;5014478;28;20053;-83
2022/12/27 03:04:47;;;;;;;22.13;9.65;;;;;;;13.47;100.00;95098.16;5028817;28;20423;-83
2022/12/27 03:07:21;;;;;;;26.60;9.73;;;;;;;13.54;100.00;95094.19;4981707;28;20042;-83
2022/12/27 03:16:26;;;;;;;33.67;13.70;;;;;;;13.76;100.00;95102.81;4959190;29;20078;-83
2022/12/27 03:18:52;;;;;;;29.55;11.73;;;;;;;13.47;100.00;95108.69;4927589;29;20031;-83
2022/12/27 03:27:01;;;;;;;29.63;12.38;;;;;;;13.65;100.00;95096.78;5010436;28;20091;-83
2022/12/27 03:35:18;;;;;;;29.83;13.20;;;;;;;14.19;100.00;95092.59;5023904;28;20044;-84
2022/12/27 03:38:04;;;;;;;31.63;14.63;;;;;;;13.76;100.00;95092.25;5004831;28;20037;-83
2022/12/27 03:43:38;;;;;;;36.08;15.07;;;;;;;14.17;100.00;95094.72;4996501;28;20473;-83
2022/12/27 03:46:33;;;;;;;35.22;15.52;;;;;;;14.32;100.00;95080.69;5021001;28;20049;-83
2022/12/27 03:49:07;;;;;;;26.67;12.98;;;;;;;14.16;100.00;95089.75;5023674;28;20036;-83
2022/12/27 03:51:52;;;;;;;31.10;15.15;;;;;;;13.90;100.00;95080.09;5021087;28;20129;-83
2022/12/27 03:54:25;;;;;;;29.67;14.85;;;;;;;13.41;100.00;95073.66;5004863;28;20080;-83
2022/12/27 03:57:12;;;;;;;31.52;14.13;;;;;;;13.90;100.00;95074.06;5005068;28;20029;-83
2022/12/27 03:59:38;;;;;;;33.75;13.55;;;;;;;12.62;100.00;95066.91;5038604;28;20033;-83
2022/12/27 04:02:04;;;;;;;25.73;12.48;;;;;;;13.28;100.00;95075.81;5004709;28;20426;-83
2022/12/27 04:04:30;;;;;;;30.33;13.98;;;;;;;13.26;100.00;95077.13;5004562;28;20033;-83
2022/12/27 04:06:56;;;;;;;28.58;14.05;;;;;;;13.33;100.00;95074.97;5020533;28;20033;-83
2022/12/27 04:36:41;;;;;;;40.78;17.05;;;;;;;13.22;100.00;95081.34;5022778;28;20044;-83
2022/12/27 04:39:07;;;;;;;42.80;15.85;;;;;;;12.99;100.00;95083.47;5020057;28;20418;-83
2022/12/27 04:55:17;;;;;;;36.28;15.23;;;;;;;12.77;100.00;95087.16;5022350;28;20516;-83
2022/12/27 04:57:43;;;;;;;38.20;16.27;;;;;;;13.19;100.00;95095.00;5019267;28;20331;-82
2022/12/27 05:02:54;;;;;;;32.55;15.55;;;;;;;13.41;100.00;95090.25;5022417;28;20032;-83
2022/12/27 05:05:20;;;;;;;34.30;15.70;;;;;;;13.70;100.00;95092.28;5019588;28;20029;-83
2022/12/27 05:15:57;;;;;;;25.27;13.50;;;;;;;13.77;100.00;95096.47;5022154;28;20099;-83
2022/12/27 05:18:26;;;;;;;34.33;15.15;;;;;;;13.52;100.00;95085.00;5003189;28;20029;-83
2022/12/27 05:20:55;;;;;;;33.30;15.10;;;;;;;13.74;100.00;95092.56;5003079;28;20025;-83
2022/12/27 05:26:08;;;;;;;33.83;15.68;;;;;;;13.91;100.00;95102.75;5021898;28;20583;-83
2022/12/27 05:28:33;;;;;;;39.65;16.73;;;;;;;13.88;100.00;95097.25;5003132;28;20037;-83
2022/12/27 05:31:01;;;;;;;35.92;16.50;;;;;;;13.87;100.00;95101.72;5019305;28;20036;-83
2022/12/27 05:33:29;;;;;;;35.58;17.08;;;;;;;13.87;100.00;95104.34;5019305;28;20025;-83
2022/12/27 05:35:57;;;;;;;29.45;14.45;;;;;;;13.94;100.00;95107.50;5036660;28;20326;-83
2022/12/27 05:38:23;;;;;;;39.20;15.30;;;;;;;13.54;100.00;95096.03;5019277;28;20346;-83
2022/12/27 05:40:48;;;;;;;30.42;14.00;;;;;;;13.75;100.00;95095.97;5047322;28;20036;-83
2022/12/27 05:43:14;;;;;;;32.63;12.90;;;;;;;13.81;100.00;95098.31;5038711;28;20048;-83
2022/12/27 05:45:39;;;;;;;35.53;14.32;;;;;;;13.89;100.00;95099.59;5022523;28;20032;-83
2022/12/27 05:48:05;;;;;;;34.30;14.75;;;;;;;14.01;100.00;95107.19;5056341;28;20048;-83
2022/12/27 05:50:30;;;;;;;34.17;14.45;;;;;;;13.95;100.00;95110.91;5022467;28;20033;-83
2022/12/27 05:52:56;;;;;;;28.33;14.57;;;;;;;14.00;100.00;95103.75;5038678;28;20036;-83
2022/12/27 05:55:21;;;;;;;27.20;12.93;;;;;;;13.96;100.00;95112.47;5038690;28;20029;-83
2022/12/27 05:57:47;;;;;;;25.67;12.93;;;;;;;13.96;100.00;95118.53;5056302;28;20029;-83
2022/12/27 06:00:13;;;;;;;31.95;12.77;;;;;;;13.94;100.00;95120.66;5038704;28;20461;-82
2022/12/27 06:02:40;;;;;;;33.72;13.20;;;;;;;13.98;100.00;95124.31;5038744;28;20052;-83
2022/12/27 06:05:08;;;;;;;24.65;11.85;;;;;;;13.97;100.00;95129.84;5022076;28;20346;-83
2022/12/27 06:07:35;;;;;;;33.08;12.90;;;;;;;13.96;100.00;95141.44;5057614;28;20078;-83
2022/12/27 06:10:01;;;;;;;31.15;12.93;;;;;;;13.85;100.00;95143.34;5042849;28;20024;-82
2022/12/27 06:12:27;;;;;;;28.25;11.38;;;;;;;14.05;100.00;95144.31;5031237;28;20388;-82
2022/12/27 06:14:56;;;;;;;26.55;11.57;;;;;;;14.14;100.00;95148.78;4995881;28;20049;-82
2022/12/27 06:17:21;;;;;;;24.92;11.82;;;;;;;14.08;100.00;95149.06;5038121;28;20040;-82
2022/12/27 06:19:46;;;;;;;29.17;12.02;;;;;;;14.10;100.00;95153.00;5022746;28;20077;-82
2022/12/27 06:22:12;;;;;;;25.55;10.75;;;;;;;14.04;100.00;95151.44;5022761;28;20054;-82
2022/12/27 06:24:38;;;;;;;30.67;12.35;;;;;;;14.18;100.00;95149.00;5040227;28;20061;-82
2022/12/27 06:27:03;;;;;;;24.10;12.20;;;;;;;14.16;100.00;95160.88;5022256;28;20029;-82
2022/12/27 06:29:29;;;;;;;25.55;11.80;;;;;;;14.09;100.00;95156.69;5022488;28;20032;-82
2022/12/27 06:31:54;;;;;;;29.52;12.10;;;;;;;14.04;100.00;95155.91;5022093;28;20042;-82
2022/12/27 06:34:20;;;;;;;25.77;11.15;;;;;;;13.69;100.00;95161.00;5022385;28;20037;-82
2022/12/27 06:36:49;;;;;;;32.10;11.57;;;;;;;13.92;100.00;95164.13;5022280;28;20048;-82
2022/12/27 06:39:18;;;;;;;32.50;13.55;;;;;;;13.94;100.00;95160.19;5026249;28;20036;-82
2022/12/27 06:41:44;;;;;;;22.90;11.48;;;;;;;14.06;100.00;95162.50;5042154;28;20024;-82
2022/12/27 06:44:09;;;;;;;23.70;10.98;;;;;;;14.20;100.00;95162.72;5025436;28;20025;-81
2022/12/27 06:46:35;;;;;;;23.88;10.60;;;;;;;13.81;100.00;95166.78;5026971;28;20040;-82
2022/12/27 06:49:01;;;;;;;27.70;11.27;;;;;;;13.67;100.00;95166.56;5017005;28;20033;-82
2022/12/27 06:51:27;;;;;;;29.67;12.20;;;;;;;13.48;100.00;95168.97;5024829;28;20087;-82
2022/12/27 06:53:53;;;;;;;26.42;12.23;;;;;;;13.56;100.00;95170.28;5039758;28;20350;-82
2022/12/27 06:56:20;;;;;;;27.00;12.57;;;;;;;13.51;100.00;95181.59;5021872;28;20037;-82
2022/12/27 06:58:48;;;;;;;36.38;15.48;;;;;;;13.48;100.00;95179.50;5022359;28;20035;-82
2022/12/27 07:01:15;;;;;;;32.13;13.82;;;;;;;13.18;100.00;95177.63;5006127;28;20117;-82
2022/12/27 07:03:41;;;;;;;34.53;14.80;;;;;;;12.67;100.00;95179.94;5024718;28;20417;-82
2022/12/27 07:06:10;;;;;;;31.92;14.93;;;;;;;12.97;100.00;95180.25;5019517;28;20069;-83
2022/12/27 07:08:36;;;;;;;44.05;16.63;;;;;;;12.56;100.00;95181.78;5009347;28;20099;-82
2022/12/27 07:11:04;;;;;;;38.70;16.85;;;;;;;13.18;100.00;95182.88;5005300;28;20056;-84
2022/12/27 07:13:33;;;;;;;34.00;14.38;;;;;;;13.38;100.00;95190.78;5005457;28;20080;-83
2022/12/27 07:15:58;;;;;;;37.58;17.25;;;;;;;13.03;100.00;95179.19;5020776;28;20069;-83
2022/12/27 07:18:24;;;;;;;40.00;16.17;;;;;;;12.87;100.00;95197.59;5039355;28;20052;-83
2022/12/27 07:20:49;;;;;;;45.08;17.83;;;;;;;13.03;100.00;95192.34;5004792;28;20025;-83
2022/12/27 07:23:17;;;;;;;38.47;16.80;;;;;;;13.33;100.00;95192.63;5021556;28;20025;-83
2022/12/27 07:25:43;;;;;;;36.28;16.23;;;;;;;13.48;100.00;95195.28;5021747;28;20095;-83
2022/12/27 07:28:08;;;;;;;41.85;17.40;;;;;;;13.52;100.00;95192.91;5005348;28;20025;-81
2022/12/27 07:30:38;;;;;;;42.67;15.95;;;;;;;13.52;100.00;95196.31;5008279;28;20152;-82
2022/12/27 07:33:04;;;;;;;40.35;16.98;;;;;;;13.38;100.00;95201.31;4985381;28;20061;-82
2022/12/27 07:35:29;;;;;;;31.00;15.43;;;;;;;13.82;100.00;95210.50;5019199;28;20065;-82
2022/12/27 07:37:57;;;;;;;28.70;13.57;;;;;;;13.95;100.00;95209.16;5001619;28;20033;-82
2022/12/27 07:40:23;;;;;;;25.83;13.25;;;;;;;14.04;100.00;95204.13;4985118;28;20410;-82
2022/12/27 07:42:48;;;;;;;30.08;11.75;;;;;;;13.89;100.00;95215.50;4985287;28;20033;-84
2022/12/27 07:45:14;;;;;;;35.92;11.80;;;;;;;14.14;100.00;95212.03;5001586;28;20037;-83
2022/12/27 07:47:40;;;;;;;22.58;11.48;;;;;;;14.34;100.00;95212.19;5033440;28;20040;-84
2022/12/27 07:50:06;;;;;;;29.90;13.60;;;;;;;14.28;100.00;95212.22;5040067;28;20144;-83
2022/12/27 07:52:31;;;;;;;32.60;13.02;;;;;;;14.20;100.00;95214.63;5020168;28;20449;-84
2022/12/27 07:54:57;;;;;;;29.27;12.77;;;;;;;14.51;100.00;95215.31;5001574;28;20034;-83
2022/12/27 07:57:23;;;;;;;31.10;11.63;;;;;;;14.18;100.00;95217.53;5001162;28;20025;-83
2022/12/27 07:59:48;;;;;;;20.75;10.63;;;;;;;14.30;100.00;95211.97;5001502;28;20442;-83
2022/12/27 08:02:15;;;;;;;24.10;11.32;;;;;;;14.80;100.00;95217.28;5018672;28;20084;-83
2022/12/27 08:04:41;;;;;;;23.73;10.82;;;;;;;14.96;100.00;95217.97;5001242;28;20026;-84
2022/12/27 08:07:17;;;;;;;22.63;12.10;;;;;;;14.89;100.00;95216.69;5001110;28;20029;-83
2022/12/27 08:09:44;;;;;;;28.75;12.60;;;;;;;14.66;100.00;95211.00;4985163;28;20451;-83
2022/12/27 08:12:12;;;;;;;26.73;11.88;;;;;;;14.61;100.00;95205.75;4984934;28;20029;-83
2022/12/27 08:14:39;;;;;;;25.17;11.68;;;;;;;14.99;100.00;95214.00;5017293;28;20083;-83
2022/12/27 08:17:15;;;;;;;27.17;11.40;;;;;;;14.84;100.00;95217.50;5000934;28;20029;-83
2022/12/27 08:19:41;;;;;;;34.88;11.52;;;;;;;14.91;100.00;95210.09;5000902;28;20034;-83
2022/12/27 08:22:06;;;;;;;21.85;10.13;;;;;;;15.22;100.00;95215.16;5000680;28;20083;-83
2022/12/27 08:24:40;;;;;;;20.98;9.93;;;;;;;15.52;100.00;95209.91;5006050;28;20447;-83
2022/12/27 08:27:06;;;;;;;26.77;10.48;;;;;;;15.36;100.00;95217.97;5000628;28;20026;-83
2022/12/27 08:29:32;;;;;;;22.67;10.32;;;;;;;15.12;100.00;95213.38;4984562;28;20079;-83
2022/12/27 08:31:57;;;;;;;18.58;9.57;;;;;;;15.38;100.00;95222.97;4999780;28;20071;-83
2022/12/27 08:34:23;;;;;;;29.20;11.55;;;;;;;15.40;100.00;95220.81;4984875;28;20120;-83
2022/12/27 08:36:52;;;;;;;22.73;10.73;;;;;;;15.73;100.00;95223.72;5000660;28;20033;-83
2022/12/27 08:39:18;;;;;;;23.35;10.07;;;;;;;15.60;100.00;95219.88;5016927;28;20075;-83
2022/12/27 08:41:43;;;;;;;19.92;10.85;;;;;;;15.69;100.00;95218.22;5000400;28;20025;-83
2022/12/27 08:44:10;;;;;;;27.88;11.23;;;;;;;15.72;100.00;95219.50;5000407;28;20324;-83
2022/12/27 08:46:36;;;;;;;21.60;10.10;;;;;;;15.87;100.00;95225.72;4984245;28;20168;-83
2022/12/27 08:49:02;;;;;;;21.13;11.10;;;;;;;15.89;100.00;95229.66;4984574;28;20026;-83
2022/12/27 08:51:28;;;;;;;26.80;11.80;;;;;;;15.30;100.00;95232.25;4983914;28;20148;-83
2022/12/27 08:53:53;;;;;;;22.48;10.95;;;;;;;15.64;100.00;95233.31;5000222;28;20036;-83
2022/12/27 08:56:19;;;;;;;24.55;11.43;;;;;;;15.32;100.00;95238.06;5000115;28;20425;-83
2022/12/27 08:58:48;;;;;;;23.15;10.98;;;;;;;15.99;100.00;95238.56;5017650;28;20025;-83
2022/12/27 09:01:14;;;;;;;26.15;11.68;;;;;;;15.92;100.00;95239.69;5000431;28;20505;-83
2022/12/27 09:03:40;;;;;;;27.35;11.10;;;;;;;15.93;100.00;95243.13;4984176;28;20029;-83
2022/12/27 09:06:17;;;;;;;29.85;12.20;;;;;;;15.88;100.00;95243.16;4999877;28;20025;-83
2022/12/27 09:08:43;;;;;;;26.63;11.40;;;;;;;15.85;100.00;95241.84;5019544;28;20031;-83
2022/12/27 09:11:21;;;;;;;25.33;11.65;;;;;;;16.22;100.00;95240.44;5003334;28;20381;-85
2022/12/27 09:13:47;;;;;;;30.60;10.45;;;;;;;16.11;100.00;95247.69;5001901;28;20037;-83
2022/12/27 09:16:15;;;;;;;19.40;9.80;;;;;;;16.39;99.80;95247.13;4999786;28;20343;-83
2022/12/27 09:18:41;;;;;;;18.70;10.45;;;;;;;16.40;96.60;95244.19;5017644;28;20026;-83
2022/12/27 09:21:09;;;;;;;20.00;9.98;;;;;;;16.49;96.89;95249.63;4999096;28;20029;-83
2022/12/27 09:23:35;;;;;;;18.27;9.52;;;;;;;16.65;97.63;95254.78;4999795;28;20022;-83
2022/12/27 09:26:15;;;;;;;22.63;9.15;;;;;;;16.85;95.46;95252.91;5017025;28;20328;-83
2022/12/27 09:28:41;;;;;;;18.38;10.45;;;;;;;16.65;97.29;95252.91;4999670;28;20026;-82
2022/12/27 09:31:08;;;;;;;26.05;10.57;;;;;;;16.52;97.17;95251.75;4999551;28;20037;-82
2022/12/27 09:33:34;;;;;;;21.92;10.38;;;;;;;16.67;94.16;95253.41;4999633;28;20034;-83
2022/12/27 09:36:10;;;;;;;19.17;10.00;;;;;;;16.61;93.09;95254.53;4999605;28;20033;-82
2022/12/27 09:38:38;;;;;;;23.95;10.13;;;;;;;16.61;94.69;95254.53;4999567;28;20026;-83
2022/12/27 09:41:13;;;;;;;21.50;9.93;;;;;;;16.87;96.91;95267.47;4999859;28;20022;-83
2022/12/27 09:43:47;;;;;;;22.35;10.77;;;;;;;16.46;98.75;95271.38;5000494;28;20025;-84
2022/12/27 09:46:15;;;;;;;;;;;;;;;16.87;92.44;95270.09;5017329;28;20026;-84
2022/12/27 09:48:43;;;;;;;19.10;10.30;;;;;;;16.54;96.61;95269.97;4999406;28;19916;-84
2022/12/27 09:51:17;;;;;;;29.05;11.63;;;;;;;16.22;97.99;95279.31;4982923;28;20022;-83
2022/12/27 09:53:59;;;;;;;23.50;10.73;;;;;;;16.19;100.00;95279.88;4984039;28;20054;-85
2022/12/27 09:56:28;;;;;;;22.70;10.90;;;;;;;16.43;100.00;95277.22;4999314;28;20339;-83
2022/12/27 09:58:57;;;;;;;22.20;11.30;;;;;;;16.83;97.21;95269.06;4983127;28;20034;-84
2022/12/27 10:01:29;;;;;;;21.20;11.43;;;;;;;17.06;94.66;95267.47;4983201;28;20339;-84
2022/12/27 10:03:54;;;;;;;26.42;11.93;;;;;;;16.70;95.42;95262.63;4983283;28;20129;-85
2022/12/27 10:06:24;;;;;;;26.33;11.77;;;;;;;16.94;94.48;95259.16;4999215;28;20033;-85
2022/12/27 10:09:05;;;;;;;17.88;10.23;;;;;;;17.16;94.54;95258.63;5019060;28;20034;-82
2022/12/27 10:11:46;;;;;;;19.73;10.68;;;;;;;16.95;94.20;95252.78;5038563;28;20033;-84
2022/12/27 10:14:27;;;;;;;21.50;10.88;;;;;;;17.16;94.13;95252.53;5038477;28;20123;-84
2022/12/27 10:17:19;;;;;;;24.05;11.20;;;;;;;17.33;91.43;95249.38;5038582;28;20029;-86
2022/12/27 10:20:07;;;;;;;23.73;11.70;;;;;;;17.20;88.59;95246.38;5022186;28;20032;-85
2022/12/27 10:22:37;;;;;;;23.98;10.77;;;;;;;17.24;89.91;95241.28;5055700;28;20091;-87
2022/12/27 10:25:07;;;;;;;22.25;11.65;;;;;;;17.31;90.45;95244.34;5022613;28;20033;-86
2022/12/27 10:27:33;;;;;;;19.25;10.15;;;;;;;17.33;87.57;95238.78;5038279;28;20035;-86
2022/12/27 10:30:00;;;;;;;19.20;9.95;;;;;;;17.45;90.03;95244.41;5038554;28;20410;-86
2022/12/27 10:32:26;;;;;;;30.50;10.43;;;;;;;17.43;86.95;95240.47;5038361;28;20029;-86
2022/12/27 10:34:59;;;;;;;20.23;10.00;;;;;;;17.07;87.95;95242.59;5021988;28;20029;-86
2022/12/27 10:37:24;;;;;;;23.10;11.30;;;;;;;17.15;86.61;95235.88;5038469;28;20029;-86
2022/12/27 10:39:50;;;;;;;18.23;10.52;;;;;;;17.14;86.36;95238.78;5038357;28;20033;-86
2022/12/27 10:42:27;;;;;;;21.08;10.35;;;;;;;16.84;94.54;95230.19;5022202;28;20074;-86
2022/12/27 10:45:28;;;;;;;19.45;10.50;;;;;;;16.88;95.00;95244.41;5048266;28;20087;-86
2022/12/27 10:47:56;;;;;;;19.60;10.77;;;;;;;16.99;95.21;95234.47;5036078;28;20061;-86
2022/12/27 10:50:24;;;;;;;19.92;10.40;;;;;;;17.12;90.00;95238.28;5002642;28;20346;-86
2022/12/27 10:52:52;;;;;;;23.38;9.90;;;;;;;17.36;86.41;95241.63;5001731;28;20067;-86
2022/12/27 10:55:38;;;;;;;18.48;8.88;;;;;;;17.73;84.07;95243.69;5020941;28;20033;-85
2022/12/27 10:58:31;;;;;;;20.50;10.18;;;;;;;17.72;87.27;95236.81;5021848;28;20033;-86
2022/12/27 11:00:56;;;;;;;18.42;9.48;;;;;;;17.43;88.46;95235.19;5006039;28;20032;-86
2022/12/27 11:03:22;;;;;;;20.50;9.38;;;;;;;17.76;85.87;95235.16;5022018;28;20434;-85
2022/12/27 11:06:02;;;;;;;21.40;10.80;;;;;;;17.94;85.16;95231.69;5020769;28;20025;-85
2022/12/27 11:08:29;;;;;;;21.63;10.02;;;;;;;17.95;85.46;95227.94;5007892;28;20053;-84
2022/12/27 11:11:17;;;;;;;21.58;9.95;;;;;;;18.25;81.14;95221.59;4986011;28;20041;-84
2022/12/27 11:13:43;;;;;;;15.60;8.38;;;;;;;18.06;83.09;95222.47;5002149;28;20080;-84
2022/12/27 11:16:29;;;;;;;15.38;8.88;;;;;;;18.23;81.76;95225.34;5002069;28;20459;-83
2022/12/27 11:18:57;;;;;;;15.57;8.45;;;;;;;17.73;87.11;95218.00;4986001;28;20029;-84
2022/12/27 11:21:23;;;;;;;17.48;8.25;;;;;;;17.47;87.59;95214.97;4986031;28;20026;-84
2022/12/27 11:24:00;;;;;;;20.67;8.93;;;;;;;17.25;87.06;95216.38;4985943;28;20431;-84
2022/12/27 11:26:29;;;;;;;20.48;9.00;;;;;;;17.66;85.66;95205.13;5001803;28;20037;-84
2022/12/27 11:29:00;;;;;;;19.30;7.55;;;;;;;17.79;81.98;95206.22;5002248;28;20036;-84
2022/12/27 11:31:38;;;;;;;14.52;7.57;;;;;;;17.90;86.01;95214.00;4985935;28;20033;-85
2022/12/27 11:34:15;;;;;;;16.58;8.10;;;;;;;18.24;81.06;95210.19;5001790;28;20025;-85
2022/12/27 11:36:42;;;;;;;15.07;7.50;;;;;;;18.33;78.56;95212.94;5019139;28;20034;-85
2022/12/27 11:39:35;;;;;;;13.93;6.20;;;;;;;18.28;79.89;95207.75;5001879;28;20498;-85
2022/12/27 11:42:02;;;;;;;14.53;6.27;;;;;;;18.06;80.39;95209.22;5001531;28;20030;-84
2022/12/27 11:44:33;;;;;;;12.63;6.38;;;;;;;18.47;77.61;95202.34;4985554;28;20714;-84
2022/12/27 11:46:58;;;;;;;14.32;5.80;;;;;;;18.30;82.02;95197.63;4985687;28;20040;-84
2022/12/27 11:49:30;;;;;;;11.68;6.30;;;;;;;18.56;78.88;95194.44;5018988;28;20033;-85
2022/12/27 11:52:20;;;;;;;14.63;6.63;;;;;;;18.75;76.50;95184.47;5001529;28;20038;-85
2022/12/27 11:55:10;;;;;;;18.48;7.97;;;;;;;18.70;77.21;95181.13;5018887;28;20030;-85
2022/12/27 11:57:51;;;;;;;20.95;9.52;;;;;;;17.84;80.45;95176.19;5001129;28;20057;-84
2022/12/27 12:00:23;;;;;;;16.75;7.72;;;;;;;18.29;77.40;95174.84;5020406;28;20554;-84
2022/12/27 12:02:55;;;;;;;21.13;9.88;;;;;;;17.81;83.31;95171.47;5021231;28;20116;-85
2022/12/27 12:05:43;;;;;;;15.10;7.85;;;;;;;18.42;78.78;95170.59;5020830;28;20080;-85
2022/12/27 12:08:40;;;;;;;15.88;7.50;;;;;;;18.90;77.10;95175.41;5020967;28;20036;-85
2022/12/27 12:11:25;;;;;;;12.30;6.70;;;;;;;18.15;82.03;95170.31;5006954;28;20067;-85
2022/12/27 12:14:24;;;;;;;11.73;6.65;;;;;;;19.00;74.95;95173.59;5020580;28;20029;-85
2022/12/27 12:17:04;;;;;;;15.73;6.88;;;;;;;18.92;75.66;95177.72;5020471;28;20036;-85
2022/12/27 12:19:42;;;;;;;16.08;6.97;;;;;;;18.79;74.77;95171.41;5020727;28;20029;-85
2022/12/27 12:22:57;;;;;;;15.68;6.47;;;;;;;18.95;73.12;95169.19;5038251;28;20469;-84
2022/12/27 12:26:00;;;;;;;14.85;6.72;;;;;;;18.88;76.63;95163.50;5013541;28;20037;-86
2022/12/27 12:28:48;;;;;;;14.77;6.30;;;;;;;19.14;73.24;95171.69;5037979;28;20395;-85
2022/12/27 12:31:35;;;;;;;19.75;7.00;;;;;;;18.35;77.81;95168.34;5037872;28;20038;-84
2022/12/27 12:34:22;;;;;;;16.83;6.72;;;;;;;19.03;76.53;95168.47;5038018;28;20025;-84
2022/12/27 12:37:07;;;;;;;17.42;8.50;;;;;;;18.54;76.45;95168.19;5037755;28;20464;-85
2022/12/27 12:40:09;;;;;;;20.55;8.80;;;;;;;17.52;82.55;95161.91;5037903;28;20021;-84
2022/12/27 12:42:55;;;;;;;19.48;9.25;;;;;;;17.09;89.36;95168.97;5037852;28;20386;-84
2022/12/27 12:45:39;;;;;;;18.27;9.77;;;;;;;17.54;87.78;95167.72;4997470;28;20454;-85
2022/12/27 12:48:26;;;;;;;22.90;9.20;;;;;;;16.92;90.80;95163.34;5019885;28;20354;-85
2022/12/27 12:50:55;;;;;;;23.20;9.27;;;;;;;16.90;91.58;95170.81;5020102;28;20131;-84
2022/12/27 12:53:50;;;;;;;18.55;8.02;;;;;;;16.96;91.35;95159.06;5020957;28;20040;-84
2022/12/27 12:56:15;;;;;;;16.17;7.47;;;;;;;16.71;92.84;95158.38;5017281;28;20029;-83
2022/12/27 12:58:54;;;;;;;21.00;8.77;;;;;;;17.00;92.71;95160.09;5017713;28;20040;-84
2022/12/27 13:01:47;;;;;;;20.48;9.18;;;;;;;16.71;94.09;95155.72;5017963;28;20427;-83
2022/12/27 13:04:41;;;;;;;26.30;8.65;;;;;;;18.16;83.68;95147.25;5000335;28;20334;-83
2022/12/27 13:07:42;;;;;;;;;;;;;;;;;;;;;
2022/12/27 13:10:29;;;;;;;22.02;9.75;;;;;;;17.11;92.94;95147.47;5001409;28;20024;-85